createdAt,value
2022-09-02T00:02:37.258Z,2.87
2022-09-02T00:05:39.914Z,3.00
2022-09-02T00:08:44.611Z,1.77
2022-09-02T00:11:49.361Z,1.60
2022-09-02T00:14:51.986Z,2.17
2022-09-02T00:17:54.881Z,1.77
2022-09-02T00:21:01.706Z,1.70
2022-09-02T00:24:07.591Z,2.70
2022-09-02T00:27:10.146Z,1.97
2022-09-02T00:30:14.601Z,3.43
2022-09-02T00:33:17.295Z,3.23
2022-09-02T00:36:20.154Z,1.67
2022-09-02T00:39:24.187Z,1.97
2022-09-02T00:42:27.575Z,1.80
2022-09-02T00:45:30.244Z,1.33
2022-09-02T00:48:33.113Z,3.83
2022-09-02T00:51:44.814Z,1.83
2022-09-02T00:54:53.405Z,1.97
2022-09-02T00:58:01.437Z,1.43
2022-09-02T01:01:04.721Z,1.10
2022-09-02T01:04:07.746Z,2.00
2022-09-02T01:07:10.563Z,2.97
2022-09-02T01:10:18.190Z,1.87
2022-09-02T01:13:24.731Z,1.33
2022-09-02T01:16:32.173Z,3.90
2022-09-02T01:19:39.532Z,3.13
2022-09-02T01:22:45.646Z,4.57
2022-09-02T01:25:48.665Z,1.40
2022-09-02T01:28:51.238Z,1.43
2022-09-02T01:31:54.014Z,1.40
2022-09-02T01:34:57.894Z,1.10
2022-09-02T01:38:02.715Z,2.53
2022-09-02T01:41:05.479Z,1.70
2022-09-02T01:44:08.418Z,1.30
2022-09-02T01:47:11.251Z,3.53
2022-09-02T01:50:14.082Z,1.73
2022-09-02T01:53:18.873Z,1.50
2022-09-02T01:56:21.590Z,5.70
2022-09-02T01:59:24.168Z,0.83
2022-09-02T02:02:26.792Z,1.73
2022-09-02T02:05:30.665Z,1.00
2022-09-02T02:08:34.797Z,1.00
2022-09-02T02:11:37.429Z,1.10
2022-09-02T02:14:40.054Z,1.60
2022-09-02T02:17:42.713Z,1.47
2022-09-02T02:20:45.802Z,2.43
2022-09-02T02:23:50.216Z,6.60
2022-09-02T02:26:53.206Z,2.63
2022-09-02T02:29:55.825Z,1.20
2022-09-02T02:32:58.504Z,1.10
2022-09-02T02:36:01.107Z,1.83
2022-09-02T02:39:06.044Z,1.67
2022-09-02T02:42:09.354Z,1.50
2022-09-02T02:45:33.980Z,1.77
2022-09-02T02:48:37.238Z,1.63
2022-09-02T02:51:39.990Z,1.37
2022-09-02T02:54:44.009Z,2.13
2022-09-02T02:57:47.373Z,2.00
2022-09-02T03:00:51.207Z,1.87
2022-09-02T03:03:54.223Z,2.50
2022-09-02T03:06:56.809Z,1.70
2022-09-02T03:10:00.832Z,8.37
2022-09-02T03:13:04.100Z,13.93
2022-09-02T03:16:07.095Z,7.27
2022-09-02T03:19:09.861Z,3.30
2022-09-02T03:22:12.429Z,1.63
2022-09-02T03:25:20.155Z,1.77
2022-09-02T03:28:22.758Z,1.23
2022-09-02T03:31:27.615Z,1.97
2022-09-02T03:34:31.684Z,3.10
2022-09-02T03:37:35.034Z,1.80
2022-09-02T03:40:41.917Z,5.90
2022-09-02T03:43:44.693Z,1.17
2022-09-02T03:46:47.894Z,1.93
2022-09-02T03:49:50.719Z,2.40
2022-09-02T03:52:53.427Z,2.60
2022-09-02T03:55:57.407Z,1.53
2022-09-02T03:59:00.539Z,1.43
2022-09-02T04:02:03.986Z,1.40
2022-09-02T04:05:13.685Z,1.20
2022-09-02T04:08:18.879Z,3.40
2022-09-02T04:11:23.881Z,1.73
2022-09-02T04:14:27.528Z,1.97
2022-09-02T04:17:30.126Z,1.30
2022-09-02T04:20:32.723Z,3.33
2022-09-02T04:23:36.020Z,3.43
2022-09-02T04:26:45.130Z,4.20
2022-09-02T04:29:48.004Z,1.30
2022-09-02T04:32:50.691Z,1.67
2022-09-02T04:35:53.261Z,2.47
2022-09-02T04:38:56.583Z,2.67
2022-09-02T04:42:00.505Z,1.77
2022-09-02T04:45:03.150Z,2.07
2022-09-02T04:48:05.823Z,2.53
2022-09-02T04:51:11.374Z,1.93
2022-09-02T04:54:14.055Z,1.40
2022-09-02T04:57:18.082Z,1.70
2022-09-02T05:00:20.938Z,2.17
2022-09-02T05:03:24.650Z,2.30
2022-09-02T05:06:28.889Z,6.63
2022-09-02T05:09:33.116Z,6.97
2022-09-02T05:12:37.233Z,5.17
2022-09-02T05:15:43.397Z,12.07
2022-09-02T05:18:46.555Z,22.63
2022-09-02T05:21:49.379Z,13.67
2022-09-02T05:24:52.257Z,9.57
2022-09-02T05:27:56.177Z,14.87
2022-09-02T05:31:05.568Z,21.37
2022-09-02T05:34:08.668Z,10.30
2022-09-02T05:37:11.333Z,42.30
2022-09-02T05:40:14.938Z,50.57
2022-09-02T05:43:19.109Z,39.57
2022-09-02T05:46:24.356Z,22.50
2022-09-02T05:49:27.531Z,5.60
2022-09-02T05:52:31.169Z,8.83
2022-09-02T05:55:33.765Z,10.70
2022-09-02T05:58:37.727Z,15.37
2022-09-02T06:01:40.444Z,3.83
2022-09-02T06:04:46.446Z,5.63
2022-09-02T06:07:49.052Z,4.87
2022-09-02T06:10:52.076Z,11.47
2022-09-02T06:13:55.984Z,8.50
2022-09-02T06:16:59.196Z,5.30
2022-09-02T06:20:02.061Z,3.47
2022-09-02T06:23:05.025Z,7.43
2022-09-02T06:26:08.754Z,7.30
2022-09-02T06:29:13.418Z,7.40
2022-09-02T06:32:16.042Z,2.93
2022-09-02T06:35:18.808Z,3.47
2022-09-02T06:38:21.469Z,4.30
2022-09-02T06:41:28.308Z,3.20
2022-09-02T06:44:32.554Z,9.20
2022-09-02T06:47:35.538Z,5.90
2022-09-02T06:50:40.156Z,4.40
2022-09-02T06:53:42.725Z,2.10
2022-09-02T06:56:51.163Z,1.20
2022-09-02T07:00:01.812Z,3.10
2022-09-02T07:03:30.236Z,4.03
2022-09-02T07:06:37.573Z,7.00
2022-09-02T07:09:40.384Z,5.03
2022-09-02T07:12:44.377Z,2.60
2022-09-02T07:15:48.576Z,2.20
2022-09-02T07:18:51.213Z,4.70
2022-09-02T07:21:54.411Z,3.07
2022-09-02T07:24:57.170Z,4.10
2022-09-02T07:28:00.544Z,2.23
2022-09-02T07:31:08.879Z,4.73
2022-09-02T07:34:11.889Z,3.90
2022-09-02T07:37:14.546Z,2.20
2022-09-02T07:40:17.770Z,1.60
2022-09-02T07:43:22.378Z,1.83
2022-09-02T07:46:26.570Z,2.67
2022-09-02T07:50:14.434Z,1.40
2022-09-02T07:52:51.948Z,2.30
2022-09-02T07:55:54.593Z,1.90
2022-09-02T07:58:57.203Z,3.40
2022-09-02T08:02:01.253Z,3.57
2022-09-02T08:05:04.887Z,3.83
2022-09-02T08:08:08.904Z,1.03
2022-09-02T08:11:12.729Z,1.17
2022-09-02T08:14:19.699Z,3.10
2022-09-02T08:17:23.673Z,1.87
2022-09-02T08:20:27.631Z,3.00
2022-09-02T08:23:37.932Z,1.27
2022-09-02T08:26:40.797Z,1.83
2022-09-02T08:29:43.370Z,1.57
2022-09-02T08:32:47.315Z,3.20
2022-09-02T08:35:49.915Z,1.73
2022-09-02T08:38:52.485Z,1.17
2022-09-02T08:42:03.635Z,0.93
2022-09-02T08:45:13.312Z,1.57
2022-09-02T08:48:22.466Z,3.60
2022-09-02T08:51:37.396Z,5.00
2022-09-02T08:54:48.552Z,1.50
2022-09-02T08:57:51.236Z,5.80
2022-09-02T09:01:04.152Z,3.10
2022-09-02T09:04:20.082Z,0.75
2022-09-02T09:07:31.089Z,2.20
2022-09-02T09:10:40.753Z,2.15
2022-09-02T09:13:56.635Z,3.85
2022-09-02T09:17:01.529Z,2.13
2022-09-02T09:20:16.632Z,1.25
2022-09-02T09:23:34.177Z,3.03
2022-09-02T09:26:42.014Z,1.95
2022-09-02T09:29:45.068Z,2.08
2022-09-02T09:32:51.055Z,1.77
2022-09-02T09:35:56.551Z,1.77
2022-09-02T09:38:59.128Z,0.85
2022-09-02T09:42:03.177Z,0.80
2022-09-02T09:45:20.872Z,4.18
2022-09-02T09:48:27.835Z,1.58
2022-09-02T09:51:40.146Z,2.45
2022-09-02T09:55:15.088Z,1.02
2022-09-02T09:58:25.276Z,3.20
2022-09-02T10:01:31.198Z,2.03
2022-09-02T10:04:43.670Z,3.78
2022-09-02T10:07:55.723Z,6.20
2022-09-02T10:11:01.492Z,1.20
2022-09-02T10:14:06.812Z,1.67
2022-09-02T10:17:24.463Z,1.48
2022-09-02T10:20:44.562Z,0.95
2022-09-02T10:24:05.683Z,1.25
2022-09-02T10:27:10.238Z,1.27
2022-09-02T10:30:19.102Z,3.50
2022-09-02T10:33:31.116Z,1.50
2022-09-02T10:36:39.951Z,3.08
2022-09-02T10:40:05.442Z,1.60
2022-09-02T10:43:10.694Z,2.22
2022-09-02T10:46:18.836Z,1.23
2022-09-02T10:49:31.922Z,1.30
2022-09-02T10:52:50.619Z,3.00
2022-09-02T10:56:00.485Z,2.08
2022-09-02T10:59:09.112Z,2.75
2022-09-02T11:02:18.889Z,3.10
2022-09-02T11:05:25.976Z,2.63
2022-09-02T11:08:39.617Z,3.85
2022-09-02T11:11:51.307Z,2.58
2022-09-02T11:15:03.685Z,1.23
2022-09-02T11:18:15.707Z,1.35
2022-09-02T11:21:32.100Z,5.75
2022-09-02T11:24:43.271Z,20.73
2022-09-02T11:27:55.818Z,1.38
2022-09-02T11:31:06.663Z,1.15
2022-09-02T11:34:18.967Z,4.80
2022-09-02T11:37:31.390Z,3.70
2022-09-02T11:40:40.151Z,1.88
2022-09-02T11:43:48.702Z,0.82
2022-09-02T11:47:20.253Z,2.22
2022-09-02T11:50:42.054Z,4.03
2022-09-02T11:53:46.579Z,3.53
2022-09-02T11:56:56.806Z,1.67
2022-09-02T12:00:08.460Z,6.82
2022-09-02T12:03:39.139Z,3.38
2022-09-02T12:07:26.811Z,4.53
2022-09-02T12:11:02.065Z,5.75
2022-09-02T12:14:07.803Z,1.30
2022-09-02T12:17:12.069Z,2.40
2022-09-02T12:20:51.109Z,4.63
2022-09-02T12:24:21.296Z,5.28
2022-09-02T12:27:29.616Z,1.13
2022-09-02T12:31:12.691Z,4.07
2022-09-02T12:34:54.291Z,8.10
2022-09-02T12:37:58.473Z,3.47
2022-09-02T12:41:13.352Z,2.00
2022-09-02T12:44:31.327Z,1.65
2022-09-02T12:47:48.960Z,2.55
2022-09-02T12:50:55.417Z,4.38
2022-09-02T12:53:58.657Z,2.55
2022-09-02T12:57:03.312Z,1.48
2022-09-02T13:00:07.061Z,5.63
2022-09-02T13:03:30.294Z,7.90
2022-09-02T13:06:44.470Z,4.93
2022-09-02T13:10:08.963Z,3.30
2022-09-02T13:13:40.769Z,5.03
2022-09-02T13:16:53.405Z,3.05
2022-09-02T13:20:24.750Z,4.63
2022-09-02T13:24:00.306Z,3.60
2022-09-02T13:27:24.014Z,6.88
2022-09-02T13:30:38.363Z,8.45
2022-09-02T13:33:42.794Z,1.85
2022-09-02T13:36:47.531Z,5.57
2022-09-02T13:39:50.126Z,2.15
2022-09-02T13:42:54.590Z,8.60
2022-09-02T13:46:03.027Z,3.03
2022-09-02T13:49:05.646Z,8.25
2022-09-02T13:52:17.062Z,5.65
2022-09-02T13:55:20.770Z,5.72
2022-09-02T13:58:33.221Z,7.18
2022-09-02T14:01:39.788Z,8.13
2022-09-02T14:04:42.865Z,3.60
2022-09-02T14:07:49.030Z,12.88
2022-09-02T14:10:53.853Z,11.55
2022-09-02T14:13:57.889Z,6.45
2022-09-02T14:17:21.100Z,4.10
2022-09-02T14:20:24.589Z,1.27
2022-09-02T14:23:28.853Z,1.77
2022-09-02T14:26:36.247Z,2.50
2022-09-02T14:29:45.014Z,1.67
2022-09-02T14:32:48.990Z,1.95
2022-09-02T14:35:59.829Z,2.50
2022-09-02T14:39:14.997Z,1.90
2022-09-02T14:42:17.722Z,1.48
2022-09-02T14:45:28.104Z,5.00
2022-09-02T14:48:38.421Z,4.03
2022-09-02T14:51:46.231Z,1.48
2022-09-02T14:54:50.819Z,3.33
2022-09-02T14:58:02.288Z,5.15
2022-09-02T15:01:08.352Z,2.28
2022-09-02T15:04:12.416Z,2.03
2022-09-02T15:07:17.304Z,1.50
2022-09-02T15:10:19.907Z,3.85
2022-09-02T15:13:29.514Z,2.55
2022-09-02T15:16:33.179Z,7.03
2022-09-02T15:19:37.138Z,6.50
2022-09-02T15:22:39.832Z,3.97
2022-09-02T15:25:42.450Z,8.40
2022-09-02T15:28:45.466Z,1.60
2022-09-02T15:31:48.053Z,8.52
2022-09-02T15:34:52.156Z,4.68
2022-09-02T15:37:54.765Z,2.53
2022-09-02T15:40:57.456Z,3.65
2022-09-02T15:44:00.681Z,3.53
2022-09-02T15:47:03.846Z,4.80
2022-09-02T15:50:08.645Z,3.72
2022-09-02T15:53:11.211Z,3.72
2022-09-02T15:56:18.504Z,4.20
2022-09-02T15:59:22.115Z,4.88
2022-09-02T16:02:24.877Z,3.65
2022-09-02T16:05:30.579Z,3.25
2022-09-02T16:08:34.762Z,4.00
2022-09-02T16:11:39.008Z,3.33
2022-09-02T16:14:41.597Z,2.88
2022-09-02T16:17:44.531Z,2.65
2022-09-02T16:20:48.463Z,6.18
2022-09-02T16:23:51.115Z,1.40
2022-09-02T16:26:53.769Z,3.65
2022-09-02T16:29:56.339Z,4.22
2022-09-02T16:32:58.933Z,3.03
2022-09-02T16:36:02.871Z,1.67
2022-09-02T16:39:07.196Z,7.03
2022-09-02T16:42:10.853Z,3.85
2022-09-02T16:45:13.449Z,3.95
2022-09-02T16:48:16.053Z,1.20
2022-09-02T16:51:20.168Z,1.30
2022-09-02T16:54:31.437Z,2.05
2022-09-02T16:57:35.009Z,4.75
2022-09-02T17:00:39.065Z,2.97
2022-09-02T17:03:42.334Z,5.68
2022-09-02T17:06:46.474Z,1.75
2022-09-02T17:09:51.669Z,3.63
2022-09-02T17:12:55.029Z,2.63
2022-09-02T17:15:57.590Z,2.00
2022-09-02T17:19:02.339Z,5.50
2022-09-02T17:22:06.335Z,1.43
2022-09-02T17:25:09.670Z,5.70
2022-09-02T17:28:12.241Z,3.57
2022-09-02T17:31:17.246Z,2.87
2022-09-02T17:34:20.038Z,4.77
2022-09-02T17:37:23.993Z,13.23
2022-09-02T17:40:43.872Z,3.27
2022-09-02T17:43:46.476Z,4.17
2022-09-02T17:46:49.247Z,3.67
2022-09-02T17:49:52.510Z,5.30
2022-09-02T17:52:56.459Z,8.17
2022-09-02T17:56:05.808Z,6.17
2022-09-02T17:59:19.324Z,3.53
2022-09-02T18:02:41.504Z,5.87
2022-09-02T18:05:58.855Z,9.43
2022-09-02T18:09:07.158Z,8.70
2022-09-02T18:12:13.628Z,3.93
2022-09-02T18:15:19.382Z,13.20
2022-09-02T18:18:21.948Z,4.03
2022-09-02T18:21:28.674Z,2.17
2022-09-02T18:24:44.590Z,1.37
2022-09-02T18:27:55.599Z,7.47
2022-09-02T18:31:04.790Z,10.53
2022-09-02T18:34:21.004Z,6.37
2022-09-02T18:37:32.339Z,3.17
2022-09-02T18:40:44.196Z,4.37
2022-09-02T18:44:07.630Z,4.03
2022-09-02T18:47:17.805Z,2.77
2022-09-02T18:50:47.434Z,1.47
2022-09-02T18:53:54.163Z,3.23
2022-09-02T18:56:59.762Z,4.37
2022-09-02T19:00:05.392Z,2.83
2022-09-02T19:03:08.592Z,1.57
2022-09-02T19:06:18.586Z,2.10
2022-09-02T19:09:24.376Z,1.47
2022-09-02T19:12:33.620Z,0.90
2022-09-02T19:15:36.797Z,3.40
2022-09-02T19:18:39.476Z,3.30
2022-09-02T19:21:47.136Z,4.30
2022-09-02T19:24:57.049Z,4.73
2022-09-02T19:28:05.800Z,17.57
2022-09-02T19:31:14.559Z,7.67
2022-09-02T19:34:19.820Z,9.47
2022-09-02T19:37:23.595Z,6.20
2022-09-02T19:40:28.460Z,8.67
2022-09-02T19:43:32.403Z,5.97
2022-09-02T19:47:15.272Z,3.77
2022-09-02T19:49:59.234Z,4.93
2022-09-02T19:53:01.825Z,1.50
2022-09-02T19:56:06.475Z,1.60
2022-09-02T19:59:11.324Z,2.50
2022-09-02T20:02:15.558Z,2.93
2022-09-02T20:05:20.152Z,5.30
2022-09-02T20:08:30.886Z,1.77
2022-09-02T20:11:34.417Z,3.20
2022-09-02T20:14:41.026Z,3.67
2022-09-02T20:17:43.793Z,5.93
2022-09-02T20:20:48.286Z,1.73
2022-09-02T20:23:51.146Z,1.23
2022-09-02T20:27:02.362Z,4.23
2022-09-02T20:30:11.185Z,2.30
2022-09-02T20:33:17.512Z,3.43
2022-09-02T20:36:29.743Z,5.83
2022-09-02T20:39:44.738Z,1.93
2022-09-02T20:43:16.933Z,1.07
2022-09-02T20:46:35.424Z,1.60
2022-09-02T20:49:57.893Z,1.73
2022-09-02T20:53:16.662Z,2.60
2022-09-02T20:56:24.625Z,4.10
2022-09-02T20:59:41.194Z,2.07
2022-09-02T21:02:52.499Z,5.07
2022-09-02T21:06:02.247Z,2.23
2022-09-02T21:09:14.936Z,5.03
2022-09-02T21:12:25.231Z,2.87
2022-09-02T21:15:31.951Z,1.83
2022-09-02T21:18:42.581Z,3.67
2022-09-02T21:21:50.159Z,1.60
2022-09-02T21:24:58.453Z,2.53
2022-09-02T21:28:08.703Z,1.80
2022-09-02T21:31:17.883Z,3.80
2022-09-02T21:34:27.384Z,1.60
2022-09-02T21:37:33.352Z,1.77
2022-09-02T21:40:51.390Z,2.30
2022-09-02T21:43:59.965Z,1.17
2022-09-02T21:47:12.024Z,2.63
2022-09-02T21:50:23.863Z,2.80
2022-09-02T21:53:40.886Z,2.73
2022-09-02T21:56:55.324Z,1.10
2022-09-02T22:00:02.580Z,4.90
2022-09-02T22:03:16.261Z,1.10
2022-09-02T22:06:27.882Z,2.10
2022-09-02T22:09:33.570Z,4.30
2022-09-02T22:12:39.644Z,5.10
2022-09-02T22:15:58.084Z,1.40
2022-09-02T22:19:08.235Z,1.10
2022-09-02T22:22:18.008Z,1.60
2022-09-02T22:25:21.721Z,2.33
2022-09-02T22:28:32.273Z,4.07
2022-09-02T22:31:40.137Z,3.80
2022-09-02T22:34:50.421Z,13.13
2022-09-02T22:38:02.596Z,5.43
2022-09-02T22:41:15.968Z,3.30
2022-09-02T22:44:23.448Z,4.23
2022-09-02T22:47:43.814Z,1.90
2022-09-02T22:51:08.601Z,1.70
2022-09-02T22:54:12.531Z,1.33
2022-09-02T22:57:29.115Z,2.40
2022-09-02T23:00:39.791Z,1.50
2022-09-02T23:03:50.275Z,2.97
2022-09-02T23:06:55.037Z,3.57
2022-09-02T23:10:00.999Z,1.33
2022-09-02T23:13:14.023Z,1.60
2022-09-02T23:16:22.123Z,2.33
2022-09-02T23:19:36.027Z,1.33
2022-09-02T23:22:51.410Z,3.67
2022-09-02T23:26:09.989Z,3.90
2022-09-02T23:29:18.194Z,1.53
2022-09-02T23:32:50.891Z,4.47
2022-09-02T23:36:02.470Z,2.90
2022-09-02T23:39:19.198Z,0.90
2022-09-02T23:42:23.459Z,2.27
2022-09-02T23:45:28.357Z,1.13
2022-09-02T23:48:44.333Z,3.97
2022-09-02T23:51:57.729Z,2.07
2022-09-02T23:55:07.724Z,1.13
2022-09-02T23:58:27.845Z,1.43
